Time;durP1;ratioP1;P1;durP2;ratioP2;P2;SDS_P1;SDS_P2;PMS_P1;PMS_P2;Temp;Humidity;BMP_temperature;BMP_pressure;BME280_temperature;BME280_humidity;BME280_pressure;Samples;Min_cycle;Max_cycle;Signal;HPM_P1;HPM_P2
2021/08/17 00:02:20;;;;;;;5.03;2.90;;;;;;;18.02;68.25;100230.22;1806415;79;21544;-79
2021/08/17 00:04:47;;;;;;;6.28;2.90;;;;;;;18.01;68.17;100234.23;1805709;79;22258;-79
2021/08/17 00:07:18;;;;;;;4.92;3.22;;;;;;;18.01;68.11;100239.56;1805921;79;20976;-79
2021/08/17 00:09:45;;;;;;;4.53;3.27;;;;;;;17.99;68.11;100240.91;1806054;79;21007;-79
2021/08/17 00:12:12;;;;;;;7.97;2.90;;;;;;;18.00;68.03;100240.02;1810863;78;21038;-79
2021/08/17 00:14:42;;;;;;;4.60;2.95;;;;;;;18.01;67.98;100239.09;1806338;78;21659;-79
2021/08/17 00:17:10;;;;;;;6.45;3.30;;;;;;;18.02;67.92;100245.33;1806108;79;21925;-79
2021/08/17 00:19:43;;;;;;;6.08;2.75;;;;;;;18.03;67.86;100238.62;1805937;79;21058;-79
2021/08/17 00:22:10;;;;;;;6.03;3.58;;;;;;;18.03;67.79;100246.61;1806771;79;21066;-79
2021/08/17 00:24:41;;;;;;;3.58;3.05;;;;;;;18.04;67.76;100247.52;1796161;78;21645;-79
2021/08/17 00:27:05;;;;;;;4.70;3.02;;;;;;;18.07;67.77;100246.12;1805319;79;21054;-79
2021/08/17 00:29:32;;;;;;;4.87;2.83;;;;;;;18.08;67.73;100239.91;1799077;78;21678;-79
2021/08/17 00:32:00;;;;;;;6.15;3.20;;;;;;;18.09;67.69;100237.66;1803095;79;21062;-79
2021/08/17 00:34:31;;;;;;;3.85;2.70;;;;;;;18.11;67.71;100241.64;1772900;79;21073;-79
2021/08/17 00:36:57;;;;;;;6.62;3.27;;;;;;;18.10;67.64;100231.44;1805089;78;22369;-79
2021/08/17 00:39:28;;;;;;;2.90;2.60;;;;;;;18.09;67.77;100229.67;1804535;79;21058;-79
2021/08/17 00:41:53;;;;;;;4.12;3.25;;;;;;;18.09;67.79;100232.79;1805246;79;21833;-79
2021/08/17 00:44:29;;;;;;;9.15;3.20;;;;;;;18.04;67.97;100232.88;1805667;79;21113;-79
2021/08/17 00:46:56;;;;;;;4.80;3.15;;;;;;;18.02;68.00;100223.56;1790931;79;20997;-79
2021/08/17 00:49:23;;;;;;;6.97;3.17;;;;;;;17.98;68.12;100220.52;1804975;79;21062;-79
2021/08/17 00:51:59;;;;;;;6.78;3.02;;;;;;;17.95;68.21;100226.34;1805782;79;21078;-79
2021/08/17 00:54:29;;;;;;;4.92;3.45;;;;;;;17.91;68.21;100221.50;1799246;78;21875;-79
2021/08/17 00:56:56;;;;;;;6.30;3.65;;;;;;;17.86;68.35;100228.20;1798528;78;21070;-79
2021/08/17 00:59:28;;;;;;;4.92;2.92;;;;;;;17.82;68.42;100229.58;1805655;79;21070;-79
2021/08/17 01:01:55;;;;;;;4.30;3.12;;;;;;;17.78;68.49;100226.06;1803848;78;21067;-79
2021/08/17 01:04:22;;;;;;;4.45;2.70;;;;;;;17.75;68.58;100220.77;1805706;79;21187;-79
2021/08/17 01:06:49;;;;;;;5.90;3.50;;;;;;;17.72;68.62;100227.91;1806762;79;21792;-79
2021/08/17 01:09:16;;;;;;;5.62;2.98;;;;;;;17.65;68.70;100225.80;1805003;79;21054;-79
2021/08/17 01:11:47;;;;;;;4.22;3.05;;;;;;;17.62;68.77;100232.48;1805820;79;21338;-79
2021/08/17 01:14:19;;;;;;;5.75;2.70;;;;;;;17.59;68.79;100229.42;1783577;79;21202;-78
2021/08/17 01:16:45;;;;;;;5.78;3.22;;;;;;;17.56;68.82;100224.13;1805756;79;21480;-79
2021/08/17 01:19:13;;;;;;;4.60;2.75;;;;;;;17.54;68.74;100226.38;1805955;79;22820;-79
2021/08/17 01:21:40;;;;;;;5.55;2.67;;;;;;;17.49;68.67;100235.30;1805832;79;21007;-79
2021/08/17 01:24:09;;;;;;;4.92;3.30;;;;;;;17.45;68.58;100236.21;1782654;79;21066;-79
2021/08/17 01:26:36;;;;;;;4.20;2.83;;;;;;;17.43;68.55;100235.35;1800696;78;21074;-79
2021/08/17 01:29:15;;;;;;;5.72;3.30;;;;;;;17.39;68.37;100238.95;1784875;79;21066;-79
2021/08/17 01:31:43;;;;;;;7.42;3.12;;;;;;;17.36;68.39;100236.34;1807259;79;22649;-79
2021/08/17 01:34:09;;;;;;;8.40;3.15;;;;;;;17.33;68.39;100238.16;1806110;79;21055;-79
2021/08/17 01:36:36;;;;;;;4.25;3.10;;;;;;;17.28;68.40;100235.53;1806160;79;21031;-79
2021/08/17 01:39:05;;;;;;;4.97;2.92;;;;;;;17.25;68.33;100233.80;1796593;78;20992;-80
2021/08/17 01:41:36;;;;;;;5.30;3.00;;;;;;;17.22;68.36;100228.95;1797547;79;21137;-79
2021/08/17 01:44:09;;;;;;;5.40;3.25;;;;;;;17.19;68.34;100234.30;1804137;78;21783;-79
2021/08/17 01:46:39;;;;;;;4.58;2.85;;;;;;;17.16;68.31;100231.69;1806143;79;21125;-79
2021/08/17 01:49:06;;;;;;;5.62;3.85;;;;;;;17.13;68.32;100245.88;1805673;79;21591;-79
2021/08/17 01:51:33;;;;;;;5.17;2.92;;;;;;;17.12;68.21;100241.47;1805237;79;21164;-81
2021/08/17 01:54:03;;;;;;;6.30;2.98;;;;;;;17.10;68.17;100233.50;1806126;79;21576;-79
2021/08/17 01:56:34;;;;;;;3.60;2.72;;;;;;;17.09;68.13;100238.38;1796217;79;21231;-79
2021/08/17 01:59:01;;;;;;;4.80;2.95;;;;;;;17.10;68.12;100236.62;1804888;79;21062;-79
2021/08/17 02:01:28;;;;;;;4.92;3.05;;;;;;;17.11;68.06;100239.70;1805624;79;22268;-79
2021/08/17 02:03:57;;;;;;;4.05;3.20;;;;;;;17.12;68.06;100236.16;1750998;79;21438;-79
2021/08/17 02:06:25;;;;;;;3.87;2.95;;;;;;;17.14;68.16;100247.66;1801444;78;21724;-79
2021/08/17 02:08:52;;;;;;;5.75;3.42;;;;;;;17.16;68.21;100251.17;1804726;79;23197;-79
2021/08/17 02:11:21;;;;;;;8.95;3.20;;;;;;;17.18;68.24;100245.39;1776815;78;21157;-79
2021/08/17 02:13:50;;;;;;;3.65;2.87;;;;;;;17.20;68.21;100244.05;1806440;78;21063;-79
2021/08/17 02:16:17;;;;;;;4.97;2.65;;;;;;;17.19;68.17;100241.84;1800252;78;20995;-79
2021/08/17 02:18:44;;;;;;;5.45;2.62;;;;;;;17.19;68.11;100236.95;1798561;78;21107;-79
2021/08/17 02:21:11;;;;;;;2.33;1.95;;;;;;;17.15;68.13;100233.90;1801781;79;21768;-79
2021/08/17 02:23:39;;;;;;;4.08;2.62;;;;;;;17.14;67.98;100232.16;1782554;79;21023;-79
2021/08/17 02:26:08;;;;;;;6.62;2.47;;;;;;;17.09;67.95;100233.52;1805988;79;21094;-78
2021/08/17 02:28:36;;;;;;;4.17;2.65;;;;;;;17.07;68.14;100231.32;1805092;79;21090;-79
2021/08/17 02:31:03;;;;;;;3.58;2.70;;;;;;;17.03;68.12;100230.92;1807621;79;21513;-79
2021/08/17 02:33:30;;;;;;;3.67;3.00;;;;;;;16.97;67.99;100231.86;1807613;78;21939;-79
2021/08/17 02:36:00;;;;;;;4.62;2.65;;;;;;;16.93;68.06;100233.22;1806733;79;21000;-79
2021/08/17 02:38:28;;;;;;;3.62;2.17;;;;;;;16.88;68.27;100231.95;1805441;79;21066;-78
2021/08/17 02:40:54;;;;;;;3.08;2.42;;;;;;;16.84;68.29;100235.08;1804392;79;21591;-78
2021/08/17 02:43:24;;;;;;;3.42;2.55;;;;;;;16.78;68.34;100236.44;1805751;79;21098;-79
2021/08/17 02:45:55;;;;;;;3.00;2.30;;;;;;;16.74;68.44;100233.80;1805943;78;21681;-79
2021/08/17 02:48:22;;;;;;;3.70;2.50;;;;;;;16.71;68.46;100236.05;1804926;79;20999;-79
2021/08/17 02:50:49;;;;;;;3.00;2.25;;;;;;;16.67;68.50;100236.52;1806035;79;21532;-80
2021/08/17 02:53:20;;;;;;;4.17;2.62;;;;;;;16.64;68.60;100243.17;1799597;78;21031;-79
2021/08/17 02:55:45;;;;;;;3.72;2.33;;;;;;;16.59;68.68;100241.45;1799115;79;21034;-80
2021/08/17 02:58:16;;;;;;;3.85;2.70;;;;;;;16.57;68.66;100244.11;1802316;79;22004;-79
2021/08/17 03:00:40;;;;;;;3.27;2.30;;;;;;;16.53;68.80;100245.03;1804834;79;21039;-79
2021/08/17 03:03:07;;;;;;;4.28;2.40;;;;;;;16.52;68.95;100251.27;1806141;79;21035;-79
2021/08/17 03:05:36;;;;;;;4.12;2.25;;;;;;;16.50;69.03;100244.63;1801131;78;21000;-79
2021/08/17 03:08:03;;;;;;;2.83;2.15;;;;;;;16.50;69.05;100243.75;1806144;79;21046;-79
2021/08/17 03:10:31;;;;;;;5.22;2.77;;;;;;;16.47;68.95;100240.65;1806624;79;21743;-79
2021/08/17 03:12:58;;;;;;;8.15;2.27;;;;;;;16.43;68.76;100234.93;1805750;79;21507;-78
2021/08/17 03:15:25;;;;;;;3.85;2.37;;;;;;;16.38;68.60;100236.73;1799419;79;21050;-79
2021/08/17 03:17:52;;;;;;;4.70;2.30;;;;;;;16.35;68.48;100237.19;1799853;79;21112;-79
2021/08/17 03:20:19;;;;;;;5.42;2.62;;;;;;;16.29;68.27;100236.36;1805888;79;21067;-79
2021/08/17 03:22:48;;;;;;;8.28;2.50;;;;;;;16.23;68.23;100240.36;1808678;79;22379;-78
2021/08/17 03:25:16;;;;;;;3.85;2.10;;;;;;;16.15;68.09;100239.55;1808699;79;21344;-79
2021/08/17 03:27:44;;;;;;;5.70;2.35;;;;;;;16.09;68.25;100240.46;1778946;78;21449;-79
2021/08/17 03:30:17;;;;;;;2.87;2.00;;;;;;;16.04;68.19;100236.94;1803038;78;21027;-79
2021/08/17 03:32:46;;;;;;;5.37;2.40;;;;;;;15.99;68.35;100233.87;1804798;79;21520;-79
2021/08/17 03:35:15;;;;;;;7.53;2.87;;;;;;;15.93;68.43;100226.83;1799110;78;21592;-79
2021/08/17 03:37:42;;;;;;;4.78;2.42;;;;;;;15.89;68.47;100226.41;1801203;79;21569;-79
2021/08/17 03:40:12;;;;;;;5.42;2.72;;;;;;;15.83;68.48;100226.45;1798414;79;21587;-79
2021/08/17 03:42:39;;;;;;;6.05;2.50;;;;;;;15.76;68.55;100231.34;1805742;79;21675;-79
2021/08/17 03:45:08;;;;;;;4.08;2.45;;;;;;;15.71;68.68;100232.64;1806196;79;21054;-79
2021/08/17 03:47:35;;;;;;;7.70;2.65;;;;;;;15.65;68.66;100235.33;1806019;79;21752;-79
2021/08/17 03:50:04;;;;;;;4.90;2.27;;;;;;;15.62;68.79;100232.27;1805466;79;21007;-79
2021/08/17 03:52:31;;;;;;;4.12;2.25;;;;;;;15.58;68.81;100231.84;1806045;79;21114;-79
2021/08/17 03:54:58;;;;;;;6.37;2.42;;;;;;;15.59;68.87;100242.00;1806439;79;21085;-79
2021/08/17 03:57:27;;;;;;;5.50;2.30;;;;;;;15.58;68.93;100241.13;1806885;79;21066;-78
2021/08/17 03:59:54;;;;;;;6.70;2.72;;;;;;;15.59;68.91;100247.30;1803042;79;21764;-79
2021/08/17 04:02:29;;;;;;;6.25;2.75;;;;;;;15.58;68.99;100238.47;1809835;78;21243;-80
2021/08/17 04:04:55;;;;;;;4.55;2.67;;;;;;;15.59;68.98;100242.00;1806634;78;21488;-80
2021/08/17 04:07:23;;;;;;;7.42;2.35;;;;;;;15.59;69.04;100232.27;1813121;79;21058;-79
2021/08/17 04:09:53;;;;;;;7.03;2.30;;;;;;;15.59;69.09;100233.59;1786229;79;21128;-81
2021/08/17 04:12:21;;;;;;;4.05;2.52;;;;;;;15.60;69.11;100239.77;1802379;78;21913;-80
2021/08/17 04:14:51;;;;;;;8.95;3.77;;;;;;;15.58;69.15;100230.94;1813252;79;21003;-79
2021/08/17 04:17:23;;;;;;;4.83;2.37;;;;;;;15.59;69.09;100237.56;1788029;79;21074;-80
2021/08/17 04:19:49;;;;;;;5.92;2.55;;;;;;;15.58;69.18;100231.84;1788261;78;21026;-78
2021/08/17 04:22:25;;;;;;;7.37;2.30;;;;;;;15.58;69.29;100241.13;1813900;79;21065;-78
2021/08/17 04:25:06;;;;;;;3.50;2.15;;;;;;;15.54;69.21;100238.92;1771169;79;20988;-80
2021/08/17 04:27:32;;;;;;;5.50;2.40;;;;;;;15.50;69.31;100244.23;1744698;80;21063;-81
2021/08/17 04:30:03;;;;;;;8.25;2.70;;;;;;;15.50;69.41;100238.50;1776920;80;21453;-79
2021/08/17 04:32:39;;;;;;;6.75;2.30;;;;;;;15.52;69.50;100227.86;1773416;80;21093;-81
2021/08/17 04:35:13;;;;;;;3.62;2.50;;;;;;;15.55;69.66;100231.39;1809824;78;21575;-81
2021/08/17 04:37:43;;;;;;;6.47;2.30;;;;;;;15.55;69.63;100227.41;1815508;78;21114;-81
2021/08/17 04:40:13;;;;;;;5.10;2.08;;;;;;;15.60;69.71;100231.39;1813763;79;20995;-81
2021/08/17 04:42:39;;;;;;;5.17;2.37;;;;;;;15.62;69.78;100227.41;1813814;79;21050;-78
2021/08/17 04:45:09;;;;;;;5.85;2.35;;;;;;;15.65;69.71;100237.53;1780604;80;20999;-79
2021/08/17 04:47:38;;;;;;;4.85;2.72;;;;;;;15.67;69.71;100239.77;1777755;80;21066;-79
2021/08/17 04:50:08;;;;;;;4.87;2.37;;;;;;;15.68;69.75;100245.95;1746326;80;21221;-79
2021/08/17 04:52:36;;;;;;;4.28;2.67;;;;;;;15.70;69.86;100245.49;1747411;80;21023;-82
2021/08/17 04:55:12;;;;;;;4.37;2.70;;;;;;;15.72;69.77;100239.73;1717307;81;21019;-82
2021/08/17 04:57:58;;;;;;;5.22;2.52;;;;;;;15.73;69.80;100247.72;1761570;80;21008;-79
2021/08/17 05:00:28;;;;;;;8.53;3.12;;;;;;;15.72;69.81;100234.42;1745187;80;21569;-79
2021/08/17 05:02:55;;;;;;;6.40;2.72;;;;;;;15.73;69.89;100246.39;1757403;80;22506;-79
2021/08/17 05:05:28;;;;;;;6.50;3.12;;;;;;;15.78;70.07;100250.80;1717468;82;21098;-78
2021/08/17 05:07:57;;;;;;;4.75;2.80;;;;;;;15.81;69.97;100248.14;1711875;80;21068;-79
2021/08/17 05:10:26;;;;;;;4.65;3.12;;;;;;;15.82;69.92;100255.20;1711565;81;21115;-81
2021/08/17 05:13:00;;;;;;;4.70;2.90;;;;;;;15.83;69.98;100237.95;1772643;80;21315;-78
2021/08/17 05:15:28;;;;;;;7.87;3.25;;;;;;;15.85;69.87;100244.58;1739754;82;21691;-79
2021/08/17 05:17:57;;;;;;;8.48;3.77;;;;;;;15.83;69.76;100250.34;1739587;82;21071;-78
2021/08/17 05:20:23;;;;;;;6.72;3.00;;;;;;;15.83;69.73;100247.69;1736441;82;21584;-78
2021/08/17 05:22:50;;;;;;;3.90;2.98;;;;;;;15.80;69.50;100247.69;1776792;80;21212;-79
2021/08/17 05:25:20;;;;;;;4.97;2.77;;;;;;;15.73;69.32;100248.14;1776093;80;21066;-79
2021/08/17 05:27:47;;;;;;;7.60;3.27;;;;;;;15.64;69.34;100249.05;1776329;80;21798;-79
2021/08/17 05:30:17;;;;;;;9.05;2.90;;;;;;;15.59;69.40;100252.16;1768361;80;21572;-80
2021/08/17 05:32:43;;;;;;;4.37;2.30;;;;;;;16.14;70.92;100244.41;1772849;80;21583;-80
2021/08/17 05:35:11;;;;;;;5.25;3.00;;;;;;;18.26;71.87;100235.66;1777323;80;21156;-79
2021/08/17 05:37:38;;;;;;;5.25;2.60;;;;;;;19.13;68.26;100224.92;1749058;80;21070;-79
2021/08/17 05:40:06;;;;;;;5.92;2.62;;;;;;;19.09;65.96;100221.43;1814568;78;21904;-79
2021/08/17 05:42:33;;;;;;;5.53;2.62;;;;;;;18.78;64.77;100217.92;1790921;78;21132;-79
2021/08/17 05:45:00;;;;;;;6.25;3.00;;;;;;;18.48;64.50;100230.44;1814923;78;21058;-78
2021/08/17 05:47:27;;;;;;;4.70;2.62;;;;;;;18.29;64.13;100239.17;1810483;78;21891;-80
2021/08/17 05:49:54;;;;;;;4.20;2.12;;;;;;;18.13;64.02;100234.50;1815459;78;21578;-79
2021/08/17 05:52:23;;;;;;;4.65;2.70;;;;;;;17.97;63.79;100228.52;1819363;78;21743;-79
2021/08/17 05:54:49;;;;;;;7.65;2.50;;;;;;;17.86;63.45;100229.99;1811815;78;21101;-79
2021/08/17 05:57:16;;;;;;;7.40;2.62;;;;;;;17.89;63.58;100223.31;1817060;78;21105;-82
2021/08/17 05:59:42;;;;;;;5.67;2.50;;;;;;;17.97;63.57;100236.05;1813463;78;21065;-82
2021/08/17 06:02:09;;;;;;;4.72;2.37;;;;;;;18.10;63.34;100238.56;1814010;79;21085;-81
2021/08/17 06:04:36;;;;;;;6.12;2.65;;;;;;;18.11;62.90;100235.84;1814424;78;21749;-83
2021/08/17 06:07:03;;;;;;;5.70;2.40;;;;;;;18.09;62.46;100229.67;1814168;78;21512;-83
2021/08/17 06:09:29;;;;;;;5.17;2.08;;;;;;;18.00;62.43;100221.80;1816990;78;21538;-83
2021/08/17 06:11:57;;;;;;;7.20;2.58;;;;;;;18.00;62.43;100221.38;1810093;78;21035;-82
2021/08/17 06:14:25;;;;;;;4.83;2.65;;;;;;;18.04;62.57;100220.89;1814410;78;21054;-83
2021/08/17 06:16:52;;;;;;;4.22;2.10;;;;;;;18.18;62.45;100211.35;1815835;78;21540;-83
2021/08/17 06:19:18;;;;;;;8.53;2.33;;;;;;;18.29;62.02;100220.06;1813807;78;21070;-83
2021/08/17 06:21:45;;;;;;;8.08;2.83;;;;;;;18.35;61.81;100217.75;1814064;79;21034;-82
2021/08/17 06:24:12;;;;;;;7.25;2.60;;;;;;;18.54;61.81;100218.34;1806676;78;21545;-82
2021/08/17 06:26:39;;;;;;;9.40;2.67;;;;;;;18.77;61.52;100212.19;1815117;78;21578;-82
2021/08/17 06:29:12;;;;;;;4.45;2.30;;;;;;;19.10;61.38;100211.63;1815732;78;21957;-83
2021/08/17 06:31:37;;;;;;;3.80;2.20;;;;;;;19.39;60.92;100202.61;1812304;78;21026;-83
2021/08/17 06:34:06;;;;;;;5.17;2.10;;;;;;;19.61;60.46;100193.72;1811395;78;21539;-83
2021/08/17 06:36:37;;;;;;;6.28;2.17;;;;;;;19.71;59.78;100193.05;1811509;79;21539;-84
2021/08/17 06:39:12;;;;;;;3.87;2.40;;;;;;;19.63;59.37;100197.66;1812048;79;21042;-83
2021/08/17 06:41:39;;;;;;;4.25;2.00;;;;;;;19.46;58.95;100193.13;1817759;78;21274;-83
2021/08/17 06:44:06;;;;;;;7.47;2.33;;;;;;;19.25;58.97;100203.79;1813887;79;21590;-83
2021/08/17 06:46:32;;;;;;;4.58;2.12;;;;;;;19.22;59.02;100208.28;1814018;79;21563;-83
2021/08/17 06:48:59;;;;;;;3.40;1.70;;;;;;;19.26;59.10;100210.88;1813995;79;21528;-83
2021/08/17 06:51:26;;;;;;;4.90;2.20;;;;;;;19.26;58.83;100193.09;1814123;79;21046;-84
2021/08/17 06:53:52;;;;;;;3.30;2.00;;;;;;;19.17;58.46;100192.81;1812881;78;22562;-83
2021/08/17 06:56:19;;;;;;;6.42;2.15;;;;;;;18.99;58.42;100185.15;1814593;78;21608;-83
2021/08/17 06:58:46;;;;;;;7.45;2.12;;;;;;;18.84;58.50;100187.21;1815765;78;21078;-83
2021/08/17 07:01:13;;;;;;;5.22;1.72;;;;;;;18.83;58.69;100185.44;1820369;78;21022;-84
2021/08/17 07:03:40;;;;;;;4.10;2.27;;;;;;;18.92;58.65;100183.50;1813970;79;21078;-84
2021/08/17 07:06:07;;;;;;;3.25;1.70;;;;;;;19.03;58.38;100175.74;1816799;78;40746;-83
2021/08/17 07:08:34;;;;;;;4.00;2.08;;;;;;;19.20;58.47;100165.17;1813852;79;21610;-82
2021/08/17 07:11:01;;;;;;;4.85;1.95;;;;;;;19.31;57.98;100175.18;1820577;78;21034;-83
2021/08/17 07:13:28;;;;;;;8.25;2.22;;;;;;;19.34;57.78;100169.80;1812729;78;21015;-83
2021/08/17 07:15:57;;;;;;;3.27;1.70;;;;;;;19.35;57.60;100173.33;1803094;79;21021;-83
2021/08/17 07:18:24;;;;;;;6.90;2.25;;;;;;;19.43;57.68;100167.41;1809357;78;21769;-83
2021/08/17 07:20:54;;;;;;;6.08;2.08;;;;;;;19.50;57.49;100169.03;1812871;78;21022;-83
2021/08/17 07:23:22;;;;;;;4.30;2.62;;;;;;;19.36;57.13;100172.44;1815269;78;21046;-83
2021/08/17 07:25:48;;;;;;;4.47;1.72;;;;;;;19.28;57.41;100175.73;1818640;78;21159;-83
2021/08/17 07:28:17;;;;;;;6.25;1.87;;;;;;;19.21;57.10;100182.50;1787695;78;21117;-84
2021/08/17 07:30:44;;;;;;;4.75;2.20;;;;;;;19.14;57.16;100179.52;1801906;78;21767;-83
2021/08/17 07:33:10;;;;;;;6.40;1.80;;;;;;;19.23;57.41;100193.14;1813214;78;21082;-83
2021/08/17 07:35:37;;;;;;;4.03;1.60;;;;;;;19.39;57.33;100189.73;1806791;78;21181;-83
2021/08/17 07:38:04;;;;;;;7.42;1.98;;;;;;;19.57;57.05;100181.31;1808502;78;21113;-84
2021/08/17 07:40:31;;;;;;;2.80;1.67;;;;;;;19.65;56.68;100173.14;1811552;78;21579;-83
2021/08/17 07:42:57;;;;;;;3.98;1.70;;;;;;;19.76;56.36;100167.61;1815659;78;21761;-83
2021/08/17 07:45:26;;;;;;;2.37;1.50;;;;;;;19.84;56.18;100160.75;1812952;79;21666;-81
2021/08/17 07:47:53;;;;;;;3.92;1.60;;;;;;;19.91;56.01;100169.05;1814010;79;21148;-83
2021/08/17 07:50:19;;;;;;;8.20;1.67;;;;;;;20.04;55.88;100168.33;1816055;78;21088;-84
2021/08/17 07:52:46;;;;;;;4.55;1.90;;;;;;;20.13;55.61;100173.45;1813946;79;21603;-83
2021/08/17 07:55:13;;;;;;;5.70;2.10;;;;;;;20.40;55.72;100167.88;1812986;78;21727;-83
2021/08/17 07:57:40;;;;;;;2.95;1.70;;;;;;;20.66;55.41;100161.04;1817628;78;21473;-84
2021/08/17 08:00:10;;;;;;;6.20;1.90;;;;;;;20.96;54.91;100160.67;1803902;78;21493;-83
2021/08/17 08:02:37;;;;;;;3.25;1.77;;;;;;;21.13;54.54;100161.55;1806435;78;21067;-83
2021/08/17 08:05:05;;;;;;;4.10;1.62;;;;;;;21.36;54.16;100169.82;1808911;79;21746;-82
2021/08/17 08:07:32;;;;;;;4.12;1.42;;;;;;;21.53;53.74;100172.04;1815855;78;21864;-83
2021/08/17 08:09:59;;;;;;;4.70;1.45;;;;;;;21.62;53.31;100172.67;1814082;78;21057;-82
2021/08/17 08:12:25;;;;;;;3.50;1.70;;;;;;;21.53;52.71;100163.14;1814368;78;21004;-83
2021/08/17 08:14:52;;;;;;;5.67;1.67;;;;;;;21.41;52.60;100166.13;1809996;78;21086;-83
2021/08/17 08:17:21;;;;;;;9.55;1.95;;;;;;;21.24;52.22;100167.95;1786883;78;21054;-83
2021/08/17 08:19:48;;;;;;;13.00;2.00;;;;;;;21.10;52.19;100164.33;1805354;78;21767;-82
2021/08/17 08:22:15;;;;;;;5.95;1.92;;;;;;;21.03;52.48;100159.59;1808909;79;21089;-83
2021/08/17 08:24:42;;;;;;;3.77;1.87;;;;;;;21.07;52.42;100159.05;1812437;79;21610;-83
2021/08/17 08:27:08;;;;;;;5.20;1.95;;;;;;;21.21;52.46;100147.95;1814252;78;21583;-83
2021/08/17 08:29:35;;;;;;;6.87;1.40;;;;;;;21.36;52.23;100144.39;1813576;78;21077;-83
2021/08/17 08:32:03;;;;;;;2.30;1.42;;;;;;;21.30;51.89;100150.36;1800679;79;21754;-83
2021/08/17 08:34:29;;;;;;;2.70;1.47;;;;;;;21.23;51.74;100147.00;1789174;79;21073;-83
2021/08/17 08:36:56;;;;;;;6.72;2.00;;;;;;;21.15;51.80;100154.35;1813070;79;20984;-82
2021/08/17 08:39:23;;;;;;;5.62;1.42;;;;;;;21.02;51.65;100155.62;1815121;78;21193;-83
2021/08/17 08:41:49;;;;;;;6.65;1.55;;;;;;;20.92;51.81;100148.31;1814917;78;21053;-82
2021/08/17 08:44:17;;;;;;;2.98;1.22;;;;;;;20.92;51.77;100142.96;1812091;78;21742;-82
2021/08/17 08:46:44;;;;;;;5.80;1.15;;;;;;;20.89;51.22;100153.30;1809549;78;20991;-82
2021/08/17 08:49:11;;;;;;;3.85;1.37;;;;;;;20.93;51.20;100141.59;1813767;78;21081;-82
2021/08/17 08:51:40;;;;;;;3.55;1.07;;;;;;;21.01;51.22;100144.52;1808056;78;21082;-82
2021/08/17 08:54:11;;;;;;;6.10;1.87;;;;;;;21.14;50.97;100137.90;1814464;78;21076;-82
2021/08/17 08:56:36;;;;;;;3.33;1.30;;;;;;;21.22;50.97;100144.36;1813197;79;22595;-82
2021/08/17 08:59:03;;;;;;;2.95;1.12;;;;;;;21.38;50.69;100137.66;1813889;79;21057;-82
2021/08/17 09:01:30;;;;;;;8.45;1.70;;;;;;;21.66;50.75;100132.37;1811066;78;21046;-82
2021/08/17 09:03:57;;;;;;;8.48;1.27;;;;;;;21.84;50.18;100120.67;1813152;79;21411;-82
2021/08/17 09:06:32;;;;;;;8.18;1.42;;;;;;;22.01;50.07;100126.36;1808199;78;21000;-82
2021/08/17 09:09:16;;;;;;;2.47;1.20;;;;;;;22.24;49.69;100126.97;1807631;78;21758;-82
2021/08/17 09:11:47;;;;;;;2.27;1.15;;;;;;;22.25;49.07;100130.52;1811911;79;21062;-82
2021/08/17 09:14:34;;;;;;;2.25;1.25;;;;;;;22.03;48.78;100132.54;1818242;78;21063;-83
2021/08/17 09:17:11;;;;;;;4.37;1.77;;;;;;;21.79;48.77;100149.39;1810578;78;21584;-82
2021/08/17 09:19:41;;;;;;;4.00;1.60;;;;;;;21.61;48.73;100139.67;1809885;79;21626;-82
2021/08/17 09:22:16;;;;;;;4.70;1.30;;;;;;;21.40;49.00;100135.80;1809257;78;22790;-82
2021/08/17 09:24:46;;;;;;;5.67;1.30;;;;;;;21.34;49.34;100125.25;1808741;78;21643;-83
2021/08/17 09:27:17;;;;;;;3.52;1.30;;;;;;;21.33;49.34;100128.40;1796058;79;22347;-82
2021/08/17 09:29:53;;;;;;;5.78;1.50;;;;;;;21.21;49.52;100131.89;1804944;78;21496;-82
2021/08/17 09:32:28;;;;;;;6.15;1.62;;;;;;;21.14;49.76;100134.75;1808702;79;21007;-83
2021/08/17 09:34:54;;;;;;;19.17;1.80;;;;;;;21.27;50.03;100127.25;1805939;78;21838;-83
2021/08/17 09:37:27;;;;;;;3.22;1.30;;;;;;;21.24;49.80;100127.80;1812254;79;21077;-83
2021/08/17 09:39:59;;;;;;;7.47;1.30;;;;;;;21.09;49.52;100127.30;1814074;79;21065;-82
2021/08/17 09:42:33;;;;;;;4.60;1.67;;;;;;;20.93;49.21;100125.53;1812760;78;21034;-82
2021/08/17 09:45:15;;;;;;;2.65;1.30;;;;;;;20.86;49.65;100135.98;1814352;79;21042;-80
2021/08/17 09:47:59;;;;;;;4.92;1.42;;;;;;;21.07;49.51;100137.65;1813697;78;22495;-80
2021/08/17 09:50:34;;;;;;;2.72;1.22;;;;;;;21.31;49.35;100134.73;1814610;78;21066;-79
2021/08/17 09:53:11;;;;;;;2.90;1.00;;;;;;;21.43;48.89;100146.41;1813968;79;21532;-80
2021/08/17 09:55:51;;;;;;;3.00;1.65;;;;;;;21.63;48.89;100136.95;1814081;79;21070;-80
2021/08/17 09:58:37;;;;;;;1.77;1.02;;;;;;;21.86;48.29;100140.25;1810743;78;21054;-79
2021/08/17 10:01:08;;;;;;;14.87;1.62;;;;;;;21.90;48.29;100135.20;1813650;78;21782;-80
2021/08/17 10:03:35;;;;;;;8.00;1.45;;;;;;;21.97;48.29;100134.09;1813842;78;21625;-80
2021/08/17 10:06:02;;;;;;;8.53;1.30;;;;;;;22.12;48.09;100138.95;1813821;78;21031;-79
2021/08/17 10:08:32;;;;;;;3.47;1.40;;;;;;;22.38;48.11;100135.91;1813748;79;21116;-79
2021/08/17 10:11:00;;;;;;;3.45;1.30;;;;;;;22.63;47.86;100132.39;1810235;78;21049;-80
2021/08/17 10:13:29;;;;;;;4.05;1.40;;;;;;;22.89;47.50;100128.31;1813970;78;21714;-80
2021/08/17 10:15:55;;;;;;;3.02;1.70;;;;;;;22.92;46.99;100130.03;1812838;78;21555;-80
2021/08/17 10:18:30;;;;;;;5.35;2.80;;;;;;;22.81;46.69;100125.05;1816487;78;21679;-80
2021/08/17 10:21:02;;;;;;;1.87;1.32;;;;;;;22.61;46.45;100111.45;1807927;78;21199;-79
2021/08/17 10:23:28;;;;;;;3.35;1.10;;;;;;;22.59;46.27;100124.05;1813611;79;21065;-80
2021/08/17 10:25:57;;;;;;;5.95;1.85;;;;;;;22.64;46.40;100132.34;1813625;79;21417;-80
2021/08/17 10:28:37;;;;;;;2.95;1.67;;;;;;;22.80;45.92;100119.25;1813572;79;21062;-80
2021/08/17 10:31:18;;;;;;;2.77;1.30;;;;;;;22.99;45.71;100113.22;1813852;79;21003;-80
2021/08/17 10:33:49;;;;;;;2.92;1.45;;;;;;;23.15;45.24;100117.61;1810599;78;21102;-80
2021/08/17 10:36:38;;;;;;;3.22;1.25;;;;;;;23.16;45.00;100106.82;1809812;79;20991;-80
2021/08/17 10:39:17;;;;;;;7.37;1.20;;;;;;;23.06;44.92;100107.60;1813244;78;22559;-80
2021/08/17 10:41:47;;;;;;;6.80;1.65;;;;;;;23.06;44.75;100112.97;1810821;79;21653;-79
2021/08/17 10:44:24;;;;;;;4.58;1.60;;;;;;;22.90;44.31;100126.53;1814521;78;21061;-81
2021/08/17 10:46:56;;;;;;;4.53;1.32;;;;;;;22.71;44.81;100112.42;1812674;79;21069;-79
2021/08/17 10:49:44;;;;;;;6.00;1.60;;;;;;;22.67;45.06;100117.94;1815846;78;21003;-80
2021/08/17 10:52:26;;;;;;;11.35;1.30;;;;;;;22.85;45.15;100119.10;1810111;78;21727;-79
2021/08/17 10:55:20;;;;;;;6.30;1.45;;;;;;;23.01;44.74;100107.33;1690245;83;21116;-79
2021/08/17 10:57:53;;;;;;;3.67;1.07;;;;;;;23.01;44.74;100107.33;1699225;83;21069;-79
2021/08/17 11:00:53;;;;;;;3.27;1.22;;;;;;;23.34;44.90;100123.16;1688229;84;21216;-79
2021/08/17 11:03:53;;;;;;;22.75;2.85;;;;;;;23.62;44.40;100137.75;1692880;83;21183;-80
2021/08/17 11:06:37;;;;;;;1.57;0.90;;;;;;;23.77;43.90;100144.34;1691540;83;22181;-80
2021/08/17 11:09:12;;;;;;;2.67;0.70;;;;;;;23.78;43.86;100152.80;1693012;83;21077;-79
2021/08/17 11:11:41;;;;;;;8.43;1.82;;;;;;;23.78;43.92;100155.48;1682800;84;21126;-79
2021/08/17 11:14:21;;;;;;;8.98;1.65;;;;;;;23.57;43.97;100151.83;1692503;84;21174;-79
2021/08/17 11:17:01;;;;;;;6.35;1.35;;;;;;;23.34;44.06;100146.86;1663224;84;21066;-79
2021/08/17 11:19:34;;;;;;;1.82;0.85;;;;;;;22.94;44.24;100122.80;1689779;84;21748;-79
2021/08/17 11:22:05;;;;;;;3.52;0.80;;;;;;;22.61;44.14;100151.21;1695968;83;21174;-79
2021/08/17 11:24:35;;;;;;;2.20;0.90;;;;;;;22.23;44.83;100145.30;1684704;83;21104;-78
2021/08/17 11:27:11;;;;;;;1.77;0.85;;;;;;;21.98;45.21;100151.03;1688756;84;21148;-79
2021/08/17 11:29:56;;;;;;;1.52;0.72;;;;;;;22.12;45.77;100145.65;1661185;84;21516;-80
2021/08/17 11:32:38;;;;;;;6.87;1.35;;;;;;;22.32;45.68;100140.15;1742198;81;22808;-79
2021/08/17 11:35:17;;;;;;;3.65;0.85;;;;;;;22.31;45.57;100135.70;1743086;81;22395;-80
2021/08/17 11:37:47;;;;;;;4.28;0.80;;;;;;;22.22;45.45;100138.17;1804196;78;21003;-80